Time;durP1;ratioP1;P1;durP2;ratioP2;P2;SDS_P1;SDS_P2;PMS_P1;PMS_P2;Temp;Humidity;BMP_temperature;BMP_pressure;BME280_temperature;BME280_humidity;BME280_pressure;Samples;Min_cycle;Max_cycle;Signal;HPM_P1;HPM_P2
2022/12/22 03:26:23;;;;;;;1.73;1.63;;;;;;;;;;5074396;28;20204;-86
2022/12/22 03:28:50;;;;;;;1.67;1.58;;;;;;;;;;5071522;28;20692;-87
2022/12/22 03:31:18;;;;;;;2.35;2.15;;;;;;;;;;5052579;28;20288;-86
2022/12/22 03:33:47;;;;;;;1.45;1.35;;;;;;;;;;5062264;28;20721;-87
2022/12/22 03:36:14;;;;;;;1.30;1.30;;;;;;;;;;5056832;28;20288;-86
2022/12/22 03:38:42;;;;;;;1.48;1.38;;;;;;;;;;5052728;28;20280;-86
2022/12/22 03:46:28;;;;;;;1.85;1.75;;;;;;;;;;5058800;28;20204;-86
2022/12/22 03:46:49;;;;;;;1.80;1.70;;;;;;;;;;5052486;28;20193;-87
2022/12/22 03:49:18;;;;;;;1.80;1.70;;;;;;;;;;5064331;28;20647;-85
2022/12/22 03:51:47;;;;;;;1.50;1.40;;;;;;;;;;5070246;28;20201;-86
2022/12/22 03:54:17;;;;;;;1.50;1.40;;;;;;;;;;5067042;28;20588;-85
2022/12/22 03:56:45;;;;;;;1.60;1.50;;;;;;;;;;5063134;28;20575;-85
2022/12/22 03:59:13;;;;;;;1.85;1.70;;;;;;;;;;5061655;28;20733;-86
2022/12/22 04:01:43;;;;;;;1.67;1.58;;;;;;;;;;5069711;28;20323;-86
2022/12/22 04:04:12;;;;;;;1.38;1.33;;;;;;;;;;5065803;28;20313;-86
2022/12/22 04:06:41;;;;;;;1.50;1.42;;;;;;;;;;5073106;28;20193;-86
2022/12/22 04:09:08;;;;;;;1.75;1.65;;;;;;;;;;5075217;28;20236;-86
2022/12/22 04:14:22;;;;;;;1.60;1.50;;;;;;;;;;5069289;28;20240;-86
2022/12/22 04:16:49;;;;;;;2.33;1.08;;;;;;;;;;5062720;28;20208;-86
2022/12/22 04:19:17;;;;;;;1.02;1.02;;;;;;;;;;5073125;28;20704;-86
2022/12/22 04:21:46;;;;;;;1.45;1.38;;;;;;;;;;5076256;28;20273;-86
2022/12/22 04:24:14;;;;;;;1.10;1.10;;;;;;;;;;5072315;28;20632;-86
2022/12/22 04:26:41;;;;;;;1.20;1.20;;;;;;;;;;5071893;28;20203;-86
2022/12/22 04:29:09;;;;;;;1.75;1.65;;;;;;;;;;5075136;28;20217;-86
2022/12/22 04:31:37;;;;;;;1.60;1.50;;;;;;;;;;5075778;28;20200;-86
2022/12/22 04:34:04;;;;;;;1.30;1.30;;;;;;;;;;5055766;28;20232;-86
2022/12/22 04:36:32;;;;;;;1.08;1.08;;;;;;;;;;5056141;28;20264;-86
2022/12/22 04:39:01;;;;;;;1.30;1.20;;;;;;;;;;5055940;28;20204;-86
2022/12/22 04:41:28;;;;;;;1.10;1.10;;;;;;;;;;5068549;28;20279;-86
2022/12/22 04:43:56;;;;;;;1.33;1.33;;;;;;;;;;5071616;28;20288;-86
2022/12/22 04:46:23;;;;;;;1.40;1.30;;;;;;;;;;5075254;28;20288;-86
2022/12/22 04:48:51;;;;;;;2.38;1.02;;;;;;;;;;5073090;28;20260;-86
2022/12/22 04:51:18;;;;;;;1.08;1.08;;;;;;;;;;5068597;28;20284;-86
2022/12/22 04:53:46;;;;;;;1.30;1.27;;;;;;;;;;5068148;28;20205;-86
2022/12/22 04:56:15;;;;;;;1.23;1.20;;;;;;;;;;5075351;28;20230;-86
2022/12/22 04:58:42;;;;;;;0.93;0.93;;;;;;;;;;5075200;28;20217;-86
2022/12/22 05:01:12;;;;;;;1.05;1.05;;;;;;;;;;5074679;28;20246;-86
2022/12/22 05:03:39;;;;;;;1.15;1.15;;;;;;;;;;5069297;28;20580;-86
2022/12/22 05:06:08;;;;;;;0.93;0.93;;;;;;;;;;5075243;28;20216;-86
2022/12/22 05:08:35;;;;;;;1.60;1.50;;;;;;;;;;5066563;28;20575;-86
2022/12/22 05:11:03;;;;;;;1.02;1.02;;;;;;;;;;5069182;28;20249;-86
2022/12/22 05:13:32;;;;;;;1.05;1.05;;;;;;;;;;5062735;28;20278;-86
2022/12/22 05:16:05;;;;;;;0.90;0.90;;;;;;;;;;5063457;28;20309;-86
2022/12/22 05:18:33;;;;;;;1.20;1.20;;;;;;;;;;5068445;28;20197;-86
2022/12/22 05:21:04;;;;;;;1.55;1.45;;;;;;;;;;5065728;28;20194;-86
2022/12/22 05:23:31;;;;;;;1.67;1.58;;;;;;;;;;5063984;28;20197;-85
2022/12/22 05:25:59;;;;;;;0.95;0.95;;;;;;;;;;5071912;28;20241;-85
2022/12/22 05:28:26;;;;;;;1.52;1.42;;;;;;;;;;5070268;28;20211;-85
2022/12/22 05:30:56;;;;;;;0.90;0.90;;;;;;;;;;5062393;28;20311;-86
2022/12/22 05:33:23;;;;;;;0.85;0.85;;;;;;;;;;5075459;28;20292;-86
2022/12/22 05:35:51;;;;;;;1.00;1.00;;;;;;;;;;5075598;28;20329;-86
2022/12/22 05:38:18;;;;;;;1.10;1.10;;;;;;;;;;5074213;28;20611;-85
2022/12/22 05:40:46;;;;;;;0.68;0.68;;;;;;;;;;5074086;28;20292;-87
2022/12/22 05:43:13;;;;;;;1.13;1.13;;;;;;;;;;5073979;28;20646;-90
2022/12/22 05:45:41;;;;;;;0.90;0.90;;;;;;;;;;5065264;28;20217;-89
2022/12/22 05:48:10;;;;;;;0.90;0.90;;;;;;;;;;5056527;28;20676;-90
2022/12/22 05:50:38;;;;;;;0.82;0.82;;;;;;;;;;5073918;28;20221;-89
2022/12/22 05:53:06;;;;;;;0.73;0.73;;;;;;;;;;5073699;28;20636;-89
2022/12/22 05:55:34;;;;;;;0.90;0.90;;;;;;;;;;5073441;28;20248;-90
2022/12/22 05:58:01;;;;;;;0.80;0.80;;;;;;;;;;5073575;28;20284;-90
2022/12/22 06:00:31;;;;;;;1.00;1.00;;;;;;;;;;5073349;28;20197;-90
2022/12/22 06:02:58;;;;;;;0.90;0.90;;;;;;;;;;5073264;28;20197;-90
2022/12/22 06:05:27;;;;;;;0.88;0.88;;;;;;;;;;5061099;28;20329;-90
2022/12/22 06:07:55;;;;;;;0.85;0.85;;;;;;;;;;5065853;28;20207;-90
2022/12/22 06:10:22;;;;;;;0.50;0.50;;;;;;;;;;5073435;28;20311;-90
2022/12/22 06:12:55;;;;;;;1.33;0.70;;;;;;;;;;5070688;28;20287;-89
2022/12/22 06:15:23;;;;;;;0.75;0.75;;;;;;;;;;5063058;28;20229;-88
2022/12/22 06:17:51;;;;;;;0.65;0.65;;;;;;;;;;5067112;28;20228;-89
2022/12/22 06:20:18;;;;;;;0.52;0.52;;;;;;;;;;5062345;28;20198;-90
2022/12/22 06:22:47;;;;;;;0.43;0.43;;;;;;;;;;5066825;28;20193;-88
2022/12/22 06:25:15;;;;;;;0.63;0.63;;;;;;;;;;5073433;28;20307;-89
2022/12/22 06:27:43;;;;;;;0.60;0.60;;;;;;;;;;5064232;28;20285;-88
2022/12/22 06:30:12;;;;;;;0.85;0.85;;;;;;;;;;5055671;28;20724;-90
2022/12/22 06:32:40;;;;;;;0.50;0.50;;;;;;;;;;5053439;28;20202;-90
2022/12/22 06:35:09;;;;;;;0.40;0.40;;;;;;;;;;5053105;28;20245;-90
2022/12/22 06:37:37;;;;;;;0.60;0.60;;;;;;;;;;5052868;28;20292;-90
2022/12/22 06:40:08;;;;;;;0.50;0.50;;;;;;;;;;5053091;28;20206;-90
2022/12/22 06:45:20;;;;;;;0.52;0.52;;;;;;;;;;5053000;28;20224;-91
2022/12/22 06:47:48;;;;;;;0.60;0.60;;;;;;;;;;5052841;28;20293;-88
2022/12/22 06:50:16;;;;;;;1.00;0.50;;;;;;;;;;5052799;28;20304;-87
2022/12/22 06:52:43;;;;;;;0.60;0.60;;;;;;;;;;5069381;28;20668;-88
2022/12/22 06:55:12;;;;;;;0.50;0.50;;;;;;;;;;5060296;28;20309;-88
2022/12/22 06:57:40;;;;;;;0.55;0.55;;;;;;;;;;5072401;28;20280;-88
2022/12/22 07:00:09;;;;;;;0.55;0.55;;;;;;;;;;5072892;28;20304;-89
2022/12/22 07:02:37;;;;;;;0.65;0.65;;;;;;;;;;5072088;28;20926;-88
2022/12/22 07:05:05;;;;;;;0.50;0.50;;;;;;;;;;5068842;28;20319;-88
2022/12/22 07:07:33;;;;;;;0.50;0.50;;;;;;;;;;5070867;28;20292;-89
2022/12/22 07:10:00;;;;;;;0.50;0.50;;;;;;;;;;5063928;28;20632;-88
2022/12/22 07:12:29;;;;;;;0.47;0.47;;;;;;;;;;5072924;28;20296;-89
2022/12/22 07:14:57;;;;;;;0.60;0.60;;;;;;;;;;5071325;28;20312;-88
2022/12/22 07:17:25;;;;;;;0.70;0.70;;;;;;;;;;5072427;28;20292;-89
2022/12/22 07:19:52;;;;;;;0.47;0.47;;;;;;;;;;5072450;28;20200;-89
2022/12/22 07:22:20;;;;;;;0.60;0.60;;;;;;;;;;5072700;28;20284;-89
2022/12/22 07:24:48;;;;;;;1.05;0.70;;;;;;;;;;5072020;28;20229;-90
2022/12/22 07:27:16;;;;;;;0.45;0.45;;;;;;;;;;5072551;28;20209;-90
2022/12/22 07:29:45;;;;;;;0.50;0.50;;;;;;;;;;5072150;28;20647;-89
2022/12/22 07:32:13;;;;;;;0.68;0.68;;;;;;;;;;5052325;28;20316;-89
2022/12/22 07:34:40;;;;;;;0.57;0.57;;;;;;;;;;5070162;28;20255;-89
2022/12/22 07:37:15;;;;;;;0.80;0.80;;;;;;;;;;5078406;28;20648;-89
2022/12/22 07:39:42;;;;;;;0.70;0.70;;;;;;;;;;5072430;28;20209;-90
2022/12/22 07:44:58;;;;;;;0.60;0.60;;;;;;;;;;5075662;28;20236;-89
2022/12/22 07:47:26;;;;;;;0.85;0.85;;;;;;;;;;5065958;28;20786;-87
2022/12/22 07:52:38;;;;;;;1.23;1.13;;;;;;;;;;5071092;28;20775;-87
2022/12/22 07:55:07;;;;;;;0.95;0.95;;;;;;;;;;5082523;28;20251;-87
2022/12/22 07:57:35;;;;;;;1.52;1.42;;;;;;;;;;5078329;28;20677;-90
2022/12/22 08:00:06;;;;;;;0.95;0.95;;;;;;;;;;5077406;28;20201;-89
2022/12/22 08:02:33;;;;;;;1.10;1.10;;;;;;;;;;5064518;28;20284;-89
2022/12/22 08:05:01;;;;;;;1.30;1.20;;;;;;;;;;5074262;28;20221;-89
2022/12/22 08:07:28;;;;;;;0.80;0.80;;;;;;;;;;5070162;28;20606;-90
2022/12/22 08:09:56;;;;;;;0.90;0.90;;;;;;;;;;5078098;28;20308;-89
2022/12/22 08:12:23;;;;;;;0.88;0.88;;;;;;;;;;5069734;28;20307;-89
2022/12/22 08:14:51;;;;;;;1.00;1.00;;;;;;;;;;5062675;28;20232;-87
2022/12/22 08:17:20;;;;;;;1.00;1.00;;;;;;;;;;5078632;28;20291;-88
2022/12/22 08:19:48;;;;;;;0.73;0.73;;;;;;;;;;5077762;28;20633;-88
2022/12/22 08:22:16;;;;;;;1.38;1.27;;;;;;;;;;5067590;28;20197;-88
2022/12/22 08:24:43;;;;;;;0.70;0.70;;;;;;;;;;5067027;28;20312;-89
2022/12/22 08:27:15;;;;;;;0.80;0.80;;;;;;;;;;5058926;28;20226;-88
2022/12/22 08:29:45;;;;;;;0.80;0.80;;;;;;;;;;5098767;28;20188;-89
2022/12/22 08:32:14;;;;;;;1.05;0.95;;;;;;;;;;5098820;28;20239;-90
2022/12/22 08:34:43;;;;;;;0.90;0.90;;;;;;;;;;5098853;28;20250;-90
2022/12/22 08:37:13;;;;;;;1.42;1.33;;;;;;;;;;5098454;28;20188;-90
2022/12/22 08:39:42;;;;;;;0.60;0.60;;;;;;;;;;5098567;28;20283;-90
2022/12/22 08:42:13;;;;;;;0.80;0.80;;;;;;;;;;5084074;28;20235;-88
2022/12/22 08:44:59;;;;;;;0.70;0.70;;;;;;;;;;5078788;28;20316;-89
2022/12/22 08:47:27;;;;;;;0.65;0.65;;;;;;;;;;5077327;28;20213;-90
2022/12/22 08:49:56;;;;;;;0.40;0.40;;;;;;;;;;5076741;28;20228;-90
2022/12/22 08:52:24;;;;;;;0.40;0.40;;;;;;;;;;5075356;28;20307;-90
2022/12/22 08:54:51;;;;;;;0.55;0.55;;;;;;;;;;5075766;28;20227;-89
2022/12/22 08:57:19;;;;;;;0.35;0.35;;;;;;;;;;5075010;28;20227;-90
2022/12/22 08:59:47;;;;;;;0.55;0.55;;;;;;;;;;5074681;28;20300;-88
2022/12/22 09:02:14;;;;;;;0.45;0.45;;;;;;;;;;5074993;28;20628;-89
2022/12/22 09:04:42;;;;;;;0.50;0.50;;;;;;;;;;5074518;28;20300;-87
2022/12/22 09:07:11;;;;;;;0.50;0.50;;;;;;;;;;5074988;28;20623;-88
2022/12/22 09:09:38;;;;;;;0.60;0.60;;;;;;;;;;5074588;28;20280;-88
2022/12/22 09:12:07;;;;;;;0.80;0.80;;;;;;;;;;5065484;28;20649;-87
2022/12/22 09:14:34;;;;;;;1.00;1.00;;;;;;;;;;5074755;28;20223;-87
2022/12/22 09:17:02;;;;;;;2.22;1.20;;;;;;;;;;5074377;28;20283;-90
2022/12/22 09:19:29;;;;;;;0.80;0.80;;;;;;;;;;5073945;28;20661;-88
2022/12/22 09:21:57;;;;;;;0.80;0.80;;;;;;;;;;5063990;28;20233;-88
2022/12/22 09:24:26;;;;;;;1.05;0.90;;;;;;;;;;5074430;28;20296;-87
2022/12/22 09:26:53;;;;;;;0.90;0.90;;;;;;;;;;5074070;28;20295;-90
2022/12/22 09:29:27;;;;;;;2.50;2.30;;;;;;;;;;5073699;28;20546;-87
2022/12/22 09:31:54;;;;;;;1.77;1.60;;;;;;;;;;5074899;28;20224;-87
2022/12/22 09:34:22;;;;;;;1.90;1.58;;;;;;;;;;5073695;28;20315;-88
2022/12/22 09:36:49;;;;;;;0.90;0.90;;;;;;;;;;5059704;28;20292;-88
2022/12/22 09:39:33;;;;;;;1.35;1.15;;;;;;;;;;5065938;28;20639;-90
2022/12/22 09:42:02;;;;;;;0.70;0.70;;;;;;;;;;5070576;28;20198;-87
2022/12/22 09:44:34;;;;;;;0.80;0.80;;;;;;;;;;5062844;28;20312;-90
2022/12/22 09:47:06;;;;;;;0.95;0.95;;;;;;;;;;5074187;28;20197;-88
2022/12/22 09:49:33;;;;;;;0.90;0.90;;;;;;;;;;5064790;28;20645;-89
2022/12/22 09:52:04;;;;;;;1.08;1.00;;;;;;;;;;5068158;28;20225;-87
2022/12/22 09:54:33;;;;;;;1.02;1.00;;;;;;;;;;5058701;28;20301;-88
2022/12/22 09:57:02;;;;;;;0.68;0.68;;;;;;;;;;5073629;28;20197;-88
2022/12/22 09:59:30;;;;;;;1.75;1.00;;;;;;;;;;5065194;28;20209;-90
2022/12/22 10:02:20;;;;;;;0.60;0.60;;;;;;;;;;5073306;28;20212;-88
2022/12/22 10:05:07;;;;;;;0.70;0.70;;;;;;;;;;5073719;28;20249;-89
2022/12/22 10:07:58;;;;;;;0.50;0.50;;;;;;;;;;5071581;28;20270;-88
2022/12/22 10:10:30;;;;;;;0.60;0.60;;;;;;;;;;5066628;28;20644;-89
2022/12/22 10:13:00;;;;;;;0.55;0.55;;;;;;;;;;5058629;28;20213;-88
2022/12/22 10:15:34;;;;;;;0.60;0.60;;;;;;;;;;5072708;28;20303;-87
2022/12/22 10:18:11;;;;;;;0.60;0.60;;;;;;;;;;5055035;28;20805;-90
2022/12/22 10:20:39;;;;;;;0.40;0.40;;;;;;;;;;5066887;28;20653;-88
2022/12/22 10:23:28;;;;;;;0.50;0.50;;;;;;;;;;5072161;28;20206;-88
2022/12/22 10:26:09;;;;;;;0.30;0.30;;;;;;;;;;5073598;28;20231;-88
2022/12/22 10:29:01;;;;;;;0.45;0.45;;;;;;;;;;5053447;28;20277;-89
2022/12/22 10:35:10;;;;;;;0.60;0.60;;;;;;;;;;5072993;28;20227;-86
2022/12/22 10:37:39;;;;;;;0.47;0.40;;;;;;;;;;5072839;28;20201;-88
2022/12/22 10:40:18;;;;;;;0.60;0.60;;;;;;;;;;5053199;28;20290;-87
2022/12/22 10:43:07;;;;;;;0.35;0.35;;;;;;;;;;5072935;28;20207;-87
2022/12/22 10:45:35;;;;;;;1.10;0.50;;;;;;;;;;5073123;28;20307;-88
2022/12/22 10:48:02;;;;;;;0.50;0.50;;;;;;;;;;5072529;28;20197;-88
2022/12/22 10:50:31;;;;;;;0.30;0.30;;;;;;;;;;5063860;28;20255;-87
2022/12/22 10:53:02;;;;;;;0.60;0.60;;;;;;;;;;5052565;28;20217;-88
2022/12/22 10:55:34;;;;;;;0.43;0.30;;;;;;;;;;5069286;28;20216;-88
2022/12/22 10:58:16;;;;;;;0.57;0.57;;;;;;;;;;5072462;28;20645;-92
2022/12/22 11:00:44;;;;;;;1.15;1.05;;;;;;;;;;5070652;28;20578;-91
2022/12/22 11:03:14;;;;;;;0.98;0.98;;;;;;;;;;5073053;28;20197;-91
2022/12/22 11:05:42;;;;;;;1.60;1.50;;;;;;;;;;5074123;28;20678;-93
2022/12/22 11:08:19;;;;;;;1.55;1.45;;;;;;;;;;5065196;28;20654;-91
2022/12/22 11:10:52;;;;;;;5.18;1.10;;;;;;;;;;5062601;28;20287;-92
2022/12/22 11:13:47;;;;;;;1.08;1.08;;;;;;;;;;5063909;28;20271;-92
2022/12/22 11:16:31;;;;;;;1.55;1.00;;;;;;;;;;5054194;28;20284;-92
2022/12/22 11:19:12;;;;;;;0.88;0.88;;;;;;;;;;5055246;28;20209;-90
2022/12/22 11:21:50;;;;;;;1.27;1.15;;;;;;;;;;5070651;28;20291;-91
2022/12/22 11:24:42;;;;;;;1.17;1.17;;;;;;;;;;5073284;28;20271;-91
2022/12/22 11:27:23;;;;;;;0.70;0.70;;;;;;;;;;5053778;28;20222;-91
2022/12/22 11:30:07;;;;;;;0.80;0.80;;;;;;;;;;5068037;28;20292;-89
2022/12/22 11:33:06;;;;;;;0.75;0.75;;;;;;;;;;5073011;28;20693;-91
2022/12/22 11:39:16;;;;;;;0.90;0.90;;;;;;;;;;5027362;23;20230;-84
2022/12/22 11:42:00;;;;;;;1.00;1.00;;;;;;;;;;5110592;28;20175;-82
2022/12/22 11:44:51;;;;;;;1.58;1.48;;;;;;;;;;5095016;28;20269;-90
2022/12/22 11:47:28;;;;;;;0.95;0.95;;;;;;;;;;5090327;28;20283;-86
2022/12/22 11:50:23;;;;;;;1.30;1.20;;;;;;;;;;5098295;28;20300;-86
2022/12/22 11:53:23;;;;;;;1.00;1.00;;;;;;;;;;5058578;28;20197;-88
2022/12/22 11:56:12;;;;;;;1.05;1.05;;;;;;;;;;5082151;28;20217;-87
2022/12/22 11:59:04;;;;;;;1.45;1.35;;;;;;;;;;5073649;28;20236;-86
2022/12/22 12:01:56;;;;;;;1.00;1.00;;;;;;;;;;5083376;28;20615;-88
2022/12/22 12:05:02;;;;;;;1.40;1.30;;;;;;;;;;5069920;28;20328;-87
2022/12/22 12:07:37;;;;;;;1.45;1.35;;;;;;;;;;5073082;28;20223;-87
2022/12/22 12:10:15;;;;;;;1.50;1.40;;;;;;;;;;5078346;28;20304;-87
2022/12/22 12:12:52;;;;;;;1.42;1.33;;;;;;;;;;5081537;28;20193;-88
2022/12/22 12:15:34;;;;;;;1.13;1.13;;;;;;;;;;5074610;28;20700;-86
2022/12/22 12:18:27;;;;;;;1.08;1.08;;;;;;;;;;5073627;28;20669;-86
2022/12/22 12:21:16;;;;;;;0.98;0.90;;;;;;;;;;5085329;28;20252;-88
2022/12/22 12:24:25;;;;;;;1.40;1.30;;;;;;;;;;5096496;28;20711;-86
2022/12/22 12:27:00;;;;;;;1.60;1.50;;;;;;;;;;5081205;28;20192;-85
2022/12/22 12:29:31;;;;;;;1.70;1.60;;;;;;;;;;5077729;28;20225;-86
2022/12/22 12:32:02;;;;;;;2.63;2.08;;;;;;;;;;5080464;28;20251;-85
2022/12/22 12:34:34;;;;;;;2.20;1.95;;;;;;;;;;5089768;28;20559;-84
2022/12/22 12:37:08;;;;;;;1.70;1.60;;;;;;;;;;5080402;28;20287;-84
2022/12/22 12:39:41;;;;;;;1.77;1.67;;;;;;;;;;5089025;28;20748;-84
2022/12/22 12:42:26;;;;;;;1.90;1.80;;;;;;;;;;5080562;28;20212;-84
2022/12/22 12:44:55;;;;;;;2.05;1.95;;;;;;;;;;5083075;28;20247;-84
2022/12/22 12:47:26;;;;;;;2.13;1.92;;;;;;;;;;5081256;28;20236;-83
2022/12/22 12:50:00;;;;;;;1.77;1.67;;;;;;;;;;5091584;28;20266;-84
2022/12/22 12:53:15;;;;;;;1.70;1.60;;;;;;;;;;5090693;28;20203;-85
2022/12/22 12:56:00;;;;;;;2.25;1.85;;;;;;;;;;5032616;28;20208;-84
2022/12/22 12:58:51;;;;;;;1.98;1.88;;;;;;;;;;5088358;28;20611;-84
2022/12/22 13:01:58;;;;;;;1.80;1.70;;;;;;;;;;5074324;28;20288;-83
2022/12/22 13:05:11;;;;;;;2.00;1.88;;;;;;;;;;5076148;28;20225;-84
2022/12/22 13:08:19;;;;;;;2.05;1.95;;;;;;;;;;5060802;28;20246;-84
2022/12/22 13:11:22;;;;;;;1.60;1.50;;;;;;;;;;5093470;28;20229;-83
2022/12/22 13:13:55;;;;;;;2.33;1.60;;;;;;;;;;5066237;28;20256;-86
2022/12/22 13:16:38;;;;;;;1.13;1.13;;;;;;;;;;5089527;28;20227;-84
2022/12/22 13:19:21;;;;;;;1.63;1.52;;;;;;;;;;5073281;28;20772;-84
2022/12/22 13:21:49;;;;;;;1.85;1.73;;;;;;;;;;5090583;28;20203;-84
2022/12/22 13:24:27;;;;;;;2.30;2.10;;;;;;;;;;5077465;28;20716;-83
2022/12/22 13:26:55;;;;;;;2.47;2.22;;;;;;;;;;5077901;28;20220;-84
2022/12/22 13:29:44;;;;;;;2.65;2.40;;;;;;;;;;5072840;28;20651;-84
2022/12/22 13:32:22;;;;;;;2.65;2.47;;;;;;;;;;5085984;28;20201;-84
2022/12/22 13:35:05;;;;;;;2.15;2.03;;;;;;;;;;5086776;28;20212;-84
2022/12/22 13:37:41;;;;;;;2.50;2.30;;;;;;;;;;5079890;28;20199;-83
2022/12/22 13:40:15;;;;;;;3.10;2.80;;;;;;;;;;5072357;28;20222;-85
2022/12/22 13:42:45;;;;;;;2.72;2.53;;;;;;;;;;5077981;28;20271;-86
2022/12/22 13:45:20;;;;;;;3.05;2.63;;;;;;;;;;5076815;28;20213;-85
2022/12/22 13:47:49;;;;;;;3.60;3.30;;;;;;;;;;5078351;28;22193;-85
2022/12/22 13:50:22;;;;;;;2.97;2.78;;;;;;;;;;5077303;28;20339;-87
2022/12/22 13:52:53;;;;;;;2.65;2.45;;;;;;;;;;5089937;28;20603;-88
2022/12/22 13:55:26;;;;;;;2.53;2.33;;;;;;;;;;5074807;28;20197;-88
2022/12/22 13:57:54;;;;;;;3.25;3.05;;;;;;;;;;5075062;28;20181;-87
2022/12/22 14:00:24;;;;;;;3.67;3.15;;;;;;;;;;5074632;28;20286;-88
2022/12/22 14:02:52;;;;;;;4.05;3.75;;;;;;;;;;5074670;28;20284;-87
2022/12/22 14:05:21;;;;;;;3.00;2.78;;;;;;;;;;5067285;28;20313;-88
2022/12/22 14:08:00;;;;;;;3.38;3.08;;;;;;;;;;5082201;28;20201;-87
2022/12/22 14:10:36;;;;;;;5.43;4.78;;;;;;;;;;5075047;28;20228;-87
2022/12/22 14:13:08;;;;;;;3.90;3.60;;;;;;;;;;5074637;28;20303;-88
2022/12/22 14:15:36;;;;;;;3.13;2.92;;;;;;;;;;5074887;28;20284;-88
2022/12/22 14:18:04;;;;;;;2.97;2.78;;;;;;;;;;5074466;28;20266;-87
2022/12/22 14:20:35;;;;;;;4.13;3.83;;;;;;;;;;5074938;28;20595;-88
2022/12/22 14:23:07;;;;;;;4.30;3.90;;;;;;;;;;5075066;28;20225;-88
2022/12/22 14:25:39;;;;;;;3.28;2.97;;;;;;;;;;5058424;28;20231;-87
2022/12/22 14:28:11;;;;;;;4.78;4.35;;;;;;;;;;5057484;28;20264;-86
2022/12/22 14:30:43;;;;;;;4.72;4.28;;;;;;;;;;5057024;28;20746;-85
2022/12/22 14:33:28;;;;;;;5.55;5.03;;;;;;;;;;5074419;28;20228;-88
2022/12/22 14:36:22;;;;;;;4.45;4.13;;;;;;;;;;5081715;28;20268;-88
2022/12/22 14:38:52;;;;;;;4.47;4.07;;;;;;;;;;5071980;28;20239;-87
2022/12/22 14:41:43;;;;;;;5.68;5.13;;;;;;;;;;5100392;28;20177;-86
2022/12/22 14:44:20;;;;;;;6.22;5.70;;;;;;;;;;5102319;28;20181;-85
2022/12/22 14:47:06;;;;;;;5.72;5.13;;;;;;;;;;5097247;28;20208;-86
2022/12/22 14:49:35;;;;;;;4.70;4.30;;;;;;;;;;5096527;28;20227;-87
2022/12/22 14:52:08;;;;;;;4.95;4.55;;;;;;;;;;5080884;28;20256;-88
2022/12/22 14:54:35;;;;;;;4.43;4.03;;;;;;;;;;5091084;28;20196;-87
2022/12/22 14:57:09;;;;;;;4.88;4.47;;;;;;;;;;5075439;28;20200;-87
2022/12/22 14:59:36;;;;;;;4.15;3.83;;;;;;;;;;5079623;28;20303;-87
2022/12/22 15:02:21;;;;;;;4.07;3.67;;;;;;;;;;5078814;28;20297;-86
2022/12/22 15:04:48;;;;;;;3.00;2.70;;;;;;;;;;5078620;28;20303;-88
2022/12/22 15:07:19;;;;;;;4.35;3.95;;;;;;;;;;5077985;28;20288;-87
2022/12/22 15:09:47;;;;;;;4.05;3.65;;;;;;;;;;5087413;28;20248;-86
2022/12/22 15:12:18;;;;;;;4.40;4.00;;;;;;;;;;5081547;28;20288;-85
2022/12/22 15:14:47;;;;;;;2.40;2.20;;;;;;;;;;5076551;28;20208;-86
2022/12/22 15:17:21;;;;;;;2.22;2.03;;;;;;;;;;5078042;28;20226;-85
2022/12/22 15:19:50;;;;;;;2.00;1.90;;;;;;;;;;5085959;28;20227;-85
2022/12/22 15:22:17;;;;;;;2.55;2.35;;;;;;;;;;5076485;28;20280;-86
2022/12/22 15:24:46;;;;;;;1.73;1.63;;;;;;;;;;5075868;28;20279;-86
2022/12/22 15:27:15;;;;;;;2.38;2.20;;;;;;;;;;5076034;28;20193;-85
2022/12/22 15:29:43;;;;;;;1.80;1.70;;;;;;;;;;5077666;28;20307;-86
2022/12/22 15:32:12;;;;;;;2.03;1.92;;;;;;;;;;5083877;28;20223;-84
2022/12/22 15:34:40;;;;;;;2.20;2.00;;;;;;;;;;5092357;28;20247;-86
2022/12/22 15:37:09;;;;;;;2.10;2.00;;;;;;;;;;5086838;28;20200;-85
2022/12/22 15:39:37;;;;;;;2.80;2.50;;;;;;;;;;5081228;28;20231;-85
2022/12/22 15:42:05;;;;;;;1.75;1.65;;;;;;;;;;5069758;28;20217;-87
2022/12/22 15:44:34;;;;;;;1.73;1.63;;;;;;;;;;5079011;28;20232;-85
2022/12/22 15:47:01;;;;;;;1.83;1.63;;;;;;;;;;5077408;28;20755;-85
2022/12/22 15:49:30;;;;;;;1.80;1.70;;;;;;;;;;5076477;28;20308;-85
2022/12/22 15:52:01;;;;;;;1.52;1.42;;;;;;;;;;5076047;28;20214;-86
2022/12/22 15:54:29;;;;;;;2.33;2.13;;;;;;;;;;5056063;28;20868;-85
2022/12/22 15:56:57;;;;;;;2.85;2.60;;;;;;;;;;5078690;28;20196;-85
2022/12/22 15:59:27;;;;;;;2.70;2.20;;;;;;;;;;5080288;28;20288;-86
2022/12/22 16:01:57;;;;;;;3.38;2.80;;;;;;;;;;5080560;28;20197;-84
2022/12/22 16:04:27;;;;;;;3.35;2.53;;;;;;;;;;5099708;28;20196;-85
2022/12/22 16:06:54;;;;;;;2.80;2.60;;;;;;;;;;5100115;28;20231;-85
2022/12/22 16:09:25;;;;;;;2.25;2.05;;;;;;;;;;5099888;28;20216;-85
2022/12/22 16:11:53;;;;;;;2.75;2.35;;;;;;;;;;5086781;28;20205;-85
2022/12/22 16:14:22;;;;;;;1.27;1.20;;;;;;;;;;5082449;28;20692;-85
2022/12/22 16:16:49;;;;;;;1.88;1.77;;;;;;;;;;5078293;28;20225;-84
2022/12/22 16:19:19;;;;;;;3.28;2.97;;;;;;;;;;5082248;28;20221;-83
2022/12/22 16:21:49;;;;;;;2.35;2.15;;;;;;;;;;5077975;28;20232;-84
2022/12/22 16:24:26;;;;;;;2.08;1.95;;;;;;;;;;5081552;28;20197;-84
2022/12/22 16:26:56;;;;;;;3.05;2.72;;;;;;;;;;5078063;28;20239;-84
2022/12/22 16:29:25;;;;;;;2.42;2.22;;;;;;;;;;5077724;28;20221;-86
2022/12/22 16:31:53;;;;;;;2.75;2.55;;;;;;;;;;5076261;28;20296;-84
2022/12/22 16:34:22;;;;;;;2.72;2.38;;;;;;;;;;5071121;28;20201;-84
2022/12/22 16:36:50;;;;;;;2.83;2.63;;;;;;;;;;5075282;28;20194;-84
2022/12/22 16:39:17;;;;;;;2.30;2.10;;;;;;;;;;5077386;28;20224;-84
2022/12/22 16:41:47;;;;;;;2.45;2.25;;;;;;;;;;5077240;28;20616;-84
2022/12/22 16:44:22;;;;;;;2.88;1.90;;;;;;;;;;5074272;28;20205;-85
2022/12/22 16:46:49;;;;;;;2.60;2.40;;;;;;;;;;5076767;28;20258;-84
2022/12/22 16:49:19;;;;;;;2.15;1.95;;;;;;;;;;5076021;28;20296;-84
2022/12/22 16:51:51;;;;;;;2.10;1.90;;;;;;;;;;5083667;28;20193;-84
2022/12/22 16:54:18;;;;;;;1.58;1.48;;;;;;;;;;5071077;28;20253;-85
2022/12/22 16:56:49;;;;;;;3.22;2.40;;;;;;;;;;5076084;28;20288;-84
2022/12/22 16:59:17;;;;;;;2.67;2.47;;;;;;;;;;5076792;28;20308;-84
2022/12/22 17:01:48;;;;;;;2.53;2.33;;;;;;;;;;5076374;28;20212;-85
2022/12/22 17:04:19;;;;;;;2.30;2.10;;;;;;;;;;5078611;28;20283;-84
2022/12/22 17:06:49;;;;;;;1.58;1.48;;;;;;;;;;5075292;28;20209;-83
2022/12/22 17:09:20;;;;;;;1.80;1.70;;;;;;;;;;5074678;28;20223;-83
2022/12/22 17:11:48;;;;;;;1.75;1.65;;;;;;;;;;5075050;28;20201;-83
2022/12/22 17:14:26;;;;;;;1.25;1.17;;;;;;;;;;5075568;28;20647;-82
2022/12/22 17:16:54;;;;;;;1.40;1.30;;;;;;;;;;5093375;28;20196;-82
2022/12/22 17:19:21;;;;;;;1.55;1.45;;;;;;;;;;5080508;28;20320;-84
2022/12/22 17:21:52;;;;;;;1.35;1.25;;;;;;;;;;5076317;28;20197;-84
2022/12/22 17:24:21;;;;;;;1.75;1.00;;;;;;;;;;5055736;28;20244;-84
2022/12/22 17:26:49;;;;;;;1.30;1.30;;;;;;;;;;5055989;28;20693;-84
2022/12/22 17:29:19;;;;;;;1.70;1.60;;;;;;;;;;5070843;28;20792;-83
2022/12/22 17:31:48;;;;;;;1.60;1.50;;;;;;;;;;5075869;28;20288;-84
2022/12/22 17:34:17;;;;;;;2.13;1.55;;;;;;;;;;5073683;28;20354;-86
2022/12/22 17:36:46;;;;;;;1.52;1.42;;;;;;;;;;5085223;28;20205;-83
2022/12/22 17:39:17;;;;;;;1.45;1.40;;;;;;;;;;5086586;28;20723;-84
2022/12/22 17:41:44;;;;;;;1.10;1.10;;;;;;;;;;5095949;22;20308;-86
2022/12/22 17:44:15;;;;;;;1.73;1.63;;;;;;;;;;5092061;28;20277;-87
2022/12/22 17:46:43;;;;;;;1.30;1.20;;;;;;;;;;5086741;28;20243;-87
2022/12/22 17:49:11;;;;;;;1.83;1.73;;;;;;;;;;5092496;28;20221;-87
2022/12/22 17:51:41;;;;;;;2.10;1.88;;;;;;;;;;5084636;28;20251;-87
2022/12/22 17:54:21;;;;;;;1.98;1.88;;;;;;;;;;5096879;28;20202;-86
2022/12/22 17:56:48;;;;;;;1.67;1.58;;;;;;;;;;5095125;28;20199;-88
2022/12/22 17:59:16;;;;;;;2.17;2.08;;;;;;;;;;5094012;28;20232;-87
2022/12/22 18:01:43;;;;;;;2.22;2.13;;;;;;;;;;5095408;28;20718;-87
2022/12/22 18:04:16;;;;;;;2.58;1.40;;;;;;;;;;5094107;28;20200;-87
2022/12/22 18:06:44;;;;;;;1.60;1.50;;;;;;;;;;5094188;28;20826;-86
2022/12/22 18:09:21;;;;;;;1.65;1.55;;;;;;;;;;5094065;28;20295;-87
2022/12/22 18:11:49;;;;;;;2.10;1.90;;;;;;;;;;5092133;28;20654;-87
2022/12/22 18:14:17;;;;;;;1.88;1.73;;;;;;;;;;5074083;28;20308;-88
2022/12/22 18:16:44;;;;;;;1.60;1.50;;;;;;;;;;5074154;28;20664;-86
2022/12/22 18:19:12;;;;;;;1.73;1.63;;;;;;;;;;5074283;28;20232;-87
2022/12/22 18:21:40;;;;;;;1.63;1.52;;;;;;;;;;5074388;28;20228;-88
2022/12/22 18:24:13;;;;;;;1.52;1.42;;;;;;;;;;5074467;28;20224;-87
2022/12/22 18:26:42;;;;;;;1.85;1.75;;;;;;;;;;5074503;28;20276;-87
2022/12/22 18:29:14;;;;;;;3.00;1.70;;;;;;;;;;5074218;28;20284;-87
2022/12/22 18:31:42;;;;;;;1.98;1.85;;;;;;;;;;5074335;28;20240;-87
2022/12/22 18:34:10;;;;;;;1.95;1.67;;;;;;;;;;5074063;28;20201;-88
2022/12/22 18:36:38;;;;;;;1.63;1.52;;;;;;;;;;5073785;28;20296;-87
2022/12/22 18:39:06;;;;;;;1.92;1.83;;;;;;;;;;5073800;28;20287;-87
2022/12/22 18:41:34;;;;;;;2.22;2.13;;;;;;;;;;5073667;28;20229;-88
2022/12/22 18:44:03;;;;;;;1.73;1.63;;;;;;;;;;5073987;28;20248;-88
2022/12/22 18:46:30;;;;;;;2.58;2.38;;;;;;;;;;5073966;28;20414;-88
2022/12/22 18:48:58;;;;;;;2.60;2.40;;;;;;;;;;5073355;28;20220;-89
2022/12/22 18:51:26;;;;;;;2.60;2.40;;;;;;;;;;5085346;28;20307;-88
2022/12/22 18:53:55;;;;;;;2.20;2.10;;;;;;;;;;5094027;28;20207;-88
2022/12/22 18:56:23;;;;;;;3.67;3.38;;;;;;;;;;5093831;28;20241;-85
2022/12/22 18:58:51;;;;;;;2.17;2.05;;;;;;;;;;5093857;28;20235;-88